createdAt,value
2022-12-31T00:00:06.123Z,10.12
2022-12-31T00:02:32.828Z,10.13
2022-12-31T00:04:59.514Z,10.12
2022-12-31T00:07:26.237Z,10.14
2022-12-31T00:09:52.932Z,10.17
2022-12-31T00:12:20.379Z,10.17
2022-12-31T00:14:47.165Z,10.16
2022-12-31T00:17:14.939Z,10.19
2022-12-31T00:19:41.603Z,10.19
2022-12-31T00:22:08.236Z,10.22
2022-12-31T00:24:35.945Z,10.24
2022-12-31T00:27:04.851Z,10.25
2022-12-31T00:29:31.636Z,10.29
2022-12-31T00:31:58.331Z,10.29
2022-12-31T00:34:26.605Z,10.31
2022-12-31T00:36:53.749Z,10.36
2022-12-31T00:39:20.858Z,10.38
2022-12-31T00:41:47.647Z,10.41
2022-12-31T00:44:14.648Z,10.42
2022-12-31T00:49:07.619Z,10.48
2022-12-31T00:51:34.263Z,10.47
2022-12-31T00:54:00.916Z,10.54
2022-12-31T00:56:30.847Z,10.56
2022-12-31T00:58:58.299Z,10.56
2022-12-31T01:01:26.337Z,10.62
2022-12-31T01:04:01.932Z,10.67
2022-12-31T01:06:28.876Z,10.69
2022-12-31T01:08:55.938Z,10.72
2022-12-31T01:11:24.702Z,10.72
2022-12-31T01:13:56.549Z,10.75
2022-12-31T01:16:32.042Z,10.78
2022-12-31T01:19:02.444Z,10.79
2022-12-31T01:21:29.530Z,10.81
2022-12-31T01:23:56.325Z,10.83
2022-12-31T01:26:22.899Z,10.84
2022-12-31T01:28:49.727Z,10.83
2022-12-31T01:31:19.222Z,10.85
2022-12-31T01:33:46.462Z,10.87
2022-12-31T01:36:28.387Z,10.87
2022-12-31T01:38:59.838Z,10.91
2022-12-31T01:41:38.182Z,10.98
2022-12-31T01:44:14.128Z,10.92
2022-12-31T01:46:51.248Z,10.88
2022-12-31T01:49:17.834Z,10.86
2022-12-31T01:51:50.035Z,10.85
2022-12-31T01:54:18.929Z,10.82
2022-12-31T01:56:49.950Z,10.85
2022-12-31T01:59:17.889Z,10.83
2022-12-31T02:01:46.783Z,10.78
2022-12-31T02:04:15.179Z,10.75
2022-12-31T02:06:48.544Z,10.75
2022-12-31T02:09:15.958Z,10.73
2022-12-31T02:11:42.587Z,10.75
2022-12-31T02:14:25.256Z,10.71
2022-12-31T02:17:00.838Z,10.69
2022-12-31T02:19:36.342Z,10.69
2022-12-31T02:22:29.030Z,10.70
2022-12-31T02:25:32.731Z,10.70
2022-12-31T02:28:17.990Z,10.70
2022-12-31T02:30:49.746Z,10.72
2022-12-31T02:33:22.010Z,10.75
2022-12-31T02:36:02.744Z,10.80
2022-12-31T02:38:34.071Z,10.77
2022-12-31T02:41:08.126Z,10.74
2022-12-31T02:43:49.256Z,10.73
2022-12-31T02:46:34.109Z,10.73
2022-12-31T02:49:31.224Z,10.74
2022-12-31T02:52:07.078Z,10.72
2022-12-31T02:55:03.572Z,10.70
2022-12-31T02:57:36.375Z,10.69
2022-12-31T03:00:28.195Z,10.73
2022-12-31T03:02:55.946Z,10.70
2022-12-31T03:05:29.543Z,10.72
2022-12-31T03:07:56.328Z,10.75
2022-12-31T03:10:23.142Z,10.76
2022-12-31T03:12:51.616Z,10.73
2022-12-31T03:15:25.218Z,10.74
2022-12-31T03:18:01.451Z,10.72
2022-12-31T03:20:55.365Z,10.69
2022-12-31T03:23:47.625Z,10.75
2022-12-31T03:26:14.269Z,10.80
2022-12-31T03:28:47.735Z,10.77
2022-12-31T03:31:14.953Z,10.84
2022-12-31T03:33:41.962Z,10.78
2022-12-31T03:36:12.705Z,10.78
2022-12-31T03:38:40.330Z,10.82
2022-12-31T03:41:09.458Z,10.85
2022-12-31T03:43:36.013Z,10.90
2022-12-31T03:46:02.637Z,10.97
2022-12-31T03:48:32.552Z,11.01
2022-12-31T03:50:59.218Z,11.04
2022-12-31T03:53:25.911Z,11.08
2022-12-31T03:55:53.457Z,11.07
2022-12-31T03:58:21.813Z,11.15
2022-12-31T04:00:49.209Z,11.20
2022-12-31T04:03:16.063Z,11.20
2022-12-31T04:05:43.089Z,11.23
2022-12-31T04:08:09.853Z,11.24
2022-12-31T04:10:36.553Z,11.30
2022-12-31T04:13:04.842Z,11.38
2022-12-31T04:15:32.347Z,11.38
2022-12-31T04:17:59.135Z,11.37
2022-12-31T04:20:25.855Z,11.35
2022-12-31T04:22:52.460Z,11.44
2022-12-31T04:25:19.460Z,11.49
2022-12-31T04:27:47.055Z,11.56
2022-12-31T04:30:14.618Z,11.56
2022-12-31T04:32:41.715Z,11.57
2022-12-31T04:35:09.433Z,11.61
2022-12-31T04:37:36.231Z,11.65
2022-12-31T04:40:06.244Z,11.65
2022-12-31T04:42:33.868Z,11.68
2022-12-31T04:45:00.542Z,11.65
2022-12-31T04:47:28.184Z,11.69
2022-12-31T04:49:54.853Z,11.71
2022-12-31T04:52:23.181Z,11.75
2022-12-31T04:54:53.073Z,11.75
2022-12-31T04:57:20.045Z,11.74
2022-12-31T04:59:46.785Z,11.77
2022-12-31T05:02:13.921Z,11.71
2022-12-31T05:04:40.683Z,11.80
2022-12-31T05:07:07.751Z,11.77
2022-12-31T05:09:34.511Z,11.78
2022-12-31T05:12:01.332Z,11.88
2022-12-31T05:14:28.101Z,11.99
2022-12-31T05:16:55.455Z,12.01
2022-12-31T05:19:22.140Z,11.96
2022-12-31T05:22:08.787Z,11.99
2022-12-31T05:24:36.197Z,11.97
2022-12-31T05:27:03.311Z,11.92
2022-12-31T05:29:29.983Z,11.99
2022-12-31T05:31:56.654Z,11.93
2022-12-31T05:34:23.344Z,12.11
2022-12-31T05:36:51.633Z,12.22
2022-12-31T05:39:18.232Z,12.23
2022-12-31T05:41:44.869Z,12.24
2022-12-31T05:44:11.627Z,12.25
2022-12-31T05:46:38.320Z,12.27
2022-12-31T05:49:05.055Z,12.26
2022-12-31T05:51:31.775Z,12.18
2022-12-31T05:53:58.443Z,12.18
2022-12-31T05:56:25.846Z,12.15
2022-12-31T05:58:52.692Z,12.11
2022-12-31T06:01:19.351Z,12.14
2022-12-31T06:03:46.676Z,12.07
2022-12-31T06:06:13.509Z,12.16
2022-12-31T06:08:40.158Z,12.18
2022-12-31T06:11:06.862Z,12.07
2022-12-31T06:13:33.552Z,12.07
2022-12-31T06:16:06.364Z,12.12
2022-12-31T06:18:33.261Z,12.05
2022-12-31T06:21:00.164Z,12.12
2022-12-31T06:23:26.980Z,12.08
2022-12-31T06:25:53.671Z,12.03
2022-12-31T06:28:21.221Z,12.05
2022-12-31T06:30:48.068Z,12.12
2022-12-31T06:33:14.682Z,12.07
2022-12-31T06:35:41.332Z,12.17
2022-12-31T06:38:07.914Z,12.24
2022-12-31T06:40:37.815Z,12.14
2022-12-31T06:43:04.501Z,12.08
2022-12-31T06:45:33.500Z,12.14
2022-12-31T06:48:03.227Z,12.19
2022-12-31T06:50:29.880Z,12.14
2022-12-31T06:52:57.466Z,12.20
2022-12-31T06:55:24.740Z,12.22
2022-12-31T06:57:51.706Z,12.14
2022-12-31T07:00:18.795Z,12.21
2022-12-31T07:02:48.460Z,12.11
2022-12-31T07:05:36.193Z,12.11
2022-12-31T07:08:24.266Z,12.04
2022-12-31T07:11:17.622Z,12.07
2022-12-31T07:14:00.227Z,11.99
2022-12-31T07:16:39.930Z,11.98
2022-12-31T07:19:19.506Z,12.04
2022-12-31T07:21:47.578Z,11.99
2022-12-31T07:24:14.727Z,11.97
2022-12-31T07:26:56.151Z,12.01
2022-12-31T07:29:45.091Z,12.02
2022-12-31T07:32:17.601Z,12.01
2022-12-31T07:35:00.977Z,11.92
2022-12-31T07:37:33.405Z,11.93
2022-12-31T07:40:29.168Z,11.91
2022-12-31T07:43:12.465Z,11.86
2022-12-31T07:46:12.902Z,12.05
2022-12-31T07:48:39.923Z,12.08
2022-12-31T07:51:07.023Z,12.27
2022-12-31T07:53:33.846Z,12.23
2022-12-31T07:56:01.890Z,12.20
2022-12-31T07:58:35.077Z,12.18
2022-12-31T08:01:03.221Z,12.09
2022-12-31T08:04:03.389Z,12.13
2022-12-31T08:06:38.829Z,12.21
2022-12-31T08:09:18.948Z,12.15
2022-12-31T08:11:56.645Z,12.11
2022-12-31T08:14:23.541Z,12.13
2022-12-31T08:16:50.906Z,12.13
2022-12-31T08:19:24.649Z,12.08
2022-12-31T08:22:00.308Z,12.11
2022-12-31T08:24:43.149Z,12.09
2022-12-31T08:27:29.560Z,12.14
2022-12-31T08:30:12.502Z,12.16
2022-12-31T08:32:47.748Z,12.12
2022-12-31T08:35:14.311Z,12.11
2022-12-31T08:37:55.916Z,12.05
2022-12-31T08:40:37.993Z,12.15
2022-12-31T08:43:15.564Z,12.12
2022-12-31T08:45:53.270Z,12.14
2022-12-31T08:48:28.864Z,12.20
2022-12-31T08:50:55.757Z,12.22
2022-12-31T08:53:22.889Z,12.23
2022-12-31T08:55:56.913Z,12.27
2022-12-31T08:58:54.012Z,12.22
2022-12-31T09:01:24.866Z,12.15
2022-12-31T09:03:57.575Z,12.27
2022-12-31T09:06:27.508Z,12.28
2022-12-31T09:09:20.001Z,12.35
2022-12-31T09:12:09.437Z,12.47
2022-12-31T09:14:43.923Z,12.49
2022-12-31T09:17:39.312Z,12.53
2022-12-31T09:20:06.891Z,12.60
2022-12-31T09:22:33.653Z,12.65
2022-12-31T09:25:00.537Z,12.69
2022-12-31T09:28:04.837Z,12.69
2022-12-31T09:30:45.597Z,12.64
2022-12-31T09:33:31.401Z,12.65
2022-12-31T09:36:21.073Z,12.68
2022-12-31T09:38:52.511Z,12.73
2022-12-31T09:41:59.418Z,12.74
2022-12-31T09:45:03.581Z,12.76
2022-12-31T09:47:55.331Z,12.77
2022-12-31T09:50:31.006Z,12.84
2022-12-31T09:53:23.788Z,12.98
2022-12-31T09:56:04.343Z,13.02
2022-12-31T09:59:14.912Z,13.01
2022-12-31T10:02:02.542Z,13.00
2022-12-31T10:04:42.233Z,13.00
2022-12-31T10:07:14.695Z,12.94
2022-12-31T10:09:50.484Z,12.92
2022-12-31T10:12:38.316Z,12.90
2022-12-31T10:15:13.906Z,12.87
2022-12-31T10:17:43.418Z,12.82
2022-12-31T10:20:33.677Z,12.80
2022-12-31T10:23:20.538Z,12.87
2022-12-31T10:26:05.429Z,12.89
2022-12-31T10:28:49.011Z,12.92
2022-12-31T10:31:37.819Z,12.90
2022-12-31T10:34:13.646Z,12.88
2022-12-31T10:36:43.153Z,12.87
2022-12-31T10:39:24.495Z,12.91
2022-12-31T10:42:13.151Z,12.92
2022-12-31T10:44:45.644Z,12.91
2022-12-31T10:47:18.263Z,12.94
2022-12-31T10:50:30.783Z,13.00
2022-12-31T10:53:25.347Z,13.02
2022-12-31T10:56:01.030Z,13.05
2022-12-31T10:58:39.864Z,13.06
2022-12-31T11:01:30.594Z,13.06
2022-12-31T11:04:18.955Z,13.15
2022-12-31T11:07:26.322Z,13.28
2022-12-31T11:10:04.978Z,13.32
2022-12-31T11:13:05.629Z,13.42
2022-12-31T11:15:50.727Z,13.53
2022-12-31T11:18:42.125Z,13.52
2022-12-31T11:21:27.843Z,13.50
2022-12-31T11:24:42.166Z,13.46
2022-12-31T11:27:39.670Z,13.37
2022-12-31T11:30:21.351Z,13.42
2022-12-31T11:32:57.858Z,13.49
2022-12-31T11:35:41.891Z,13.46
2022-12-31T11:38:25.856Z,13.47
2022-12-31T11:41:16.406Z,13.51
2022-12-31T11:44:10.679Z,13.48
2022-12-31T11:47:11.287Z,13.53
2022-12-31T11:50:05.793Z,13.54
2022-12-31T11:53:00.050Z,13.58
2022-12-31T11:56:07.418Z,13.67
2022-12-31T11:58:34.085Z,13.89
2022-12-31T12:01:09.262Z,14.04
2022-12-31T12:03:42.382Z,14.21
2022-12-31T12:06:14.616Z,14.35
2022-12-31T12:08:42.574Z,14.47
2022-12-31T12:11:25.798Z,14.78
2022-12-31T12:13:52.424Z,15.07
2022-12-31T12:16:21.240Z,15.06
2022-12-31T12:18:51.589Z,14.94
2022-12-31T12:21:24.219Z,14.97
2022-12-31T12:24:05.507Z,14.68
2022-12-31T12:26:41.983Z,14.46
2022-12-31T12:29:21.122Z,14.41
2022-12-31T12:32:22.652Z,14.22
2022-12-31T12:34:50.476Z,14.02
2022-12-31T12:37:29.632Z,14.02
2022-12-31T12:40:21.802Z,13.97
2022-12-31T12:42:50.270Z,14.03
2022-12-31T12:45:21.112Z,14.02
2022-12-31T12:47:53.527Z,13.98
2022-12-31T12:50:23.652Z,13.91
2022-12-31T12:53:27.588Z,13.87
2022-12-31T12:56:04.630Z,13.82
2022-12-31T12:58:46.268Z,13.73
2022-12-31T13:01:25.624Z,13.70
2022-12-31T13:04:33.474Z,13.68
2022-12-31T13:07:16.264Z,13.60
2022-12-31T13:09:56.258Z,13.58
2022-12-31T13:15:47.946Z,13.55
2022-12-31T13:18:39.310Z,13.53
2022-12-31T13:21:48.482Z,13.57
2022-12-31T13:24:45.890Z,13.54
2022-12-31T13:27:27.627Z,13.50
2022-12-31T13:29:59.323Z,13.41
2022-12-31T13:32:53.429Z,13.42
2022-12-31T13:35:47.065Z,13.47
2022-12-31T13:38:24.305Z,13.43
2022-12-31T13:41:01.380Z,13.38
2022-12-31T13:43:55.912Z,13.42
2022-12-31T13:46:29.792Z,13.43
2022-12-31T13:48:59.811Z,13.40
2022-12-31T13:51:46.145Z,13.39
2022-12-31T13:54:15.737Z,13.36
2022-12-31T13:56:44.991Z,13.43
2022-12-31T13:59:18.166Z,13.38
2022-12-31T14:02:06.071Z,13.38
2022-12-31T14:05:15.944Z,13.34
2022-12-31T14:07:54.839Z,13.32
2022-12-31T14:10:49.468Z,13.25
2022-12-31T14:13:15.967Z,13.25
2022-12-31T14:16:08.307Z,13.21
2022-12-31T14:18:46.147Z,13.12
2022-12-31T14:21:29.847Z,13.14
2022-12-31T14:24:03.709Z,13.09
2022-12-31T14:26:38.897Z,13.03
2022-12-31T14:29:19.097Z,13.00
2022-12-31T14:31:48.849Z,12.93
2022-12-31T14:34:40.641Z,12.91
2022-12-31T14:37:30.451Z,12.88
2022-12-31T14:40:16.910Z,12.86
2022-12-31T14:43:02.259Z,12.84
2022-12-31T14:45:56.345Z,12.79
2022-12-31T14:48:44.084Z,12.71
2022-12-31T14:51:12.363Z,12.66
2022-12-31T14:53:38.965Z,12.62
2022-12-31T14:56:26.844Z,12.57
2022-12-31T14:59:27.721Z,12.51
2022-12-31T15:01:56.873Z,12.44
2022-12-31T15:04:46.420Z,12.41
2022-12-31T15:07:30.312Z,12.34
2022-12-31T15:10:09.838Z,12.33
2022-12-31T15:12:49.388Z,12.33
2022-12-31T15:15:23.094Z,12.25
2022-12-31T15:17:58.467Z,12.20
2022-12-31T15:20:45.168Z,12.15
2022-12-31T15:23:23.993Z,12.05
2022-12-31T15:25:59.829Z,12.05
2022-12-31T15:28:36.578Z,12.03
2022-12-31T15:31:20.326Z,12.02
2022-12-31T15:34:05.436Z,11.92
2022-12-31T15:36:38.624Z,11.87
2022-12-31T15:39:06.999Z,11.79
2022-12-31T15:42:10.375Z,11.74
2022-12-31T15:44:49.111Z,11.73
2022-12-31T15:47:25.794Z,11.67
2022-12-31T15:49:54.737Z,11.64
2022-12-31T15:52:28.092Z,11.59
2022-12-31T15:54:56.753Z,11.55
2022-12-31T15:57:37.307Z,11.46
2022-12-31T16:00:23.388Z,11.43
2022-12-31T16:02:55.458Z,11.42
2022-12-31T16:05:27.768Z,11.42
2022-12-31T16:07:56.324Z,11.39
2022-12-31T16:10:28.008Z,11.32
2022-12-31T16:12:56.825Z,11.27
2022-12-31T16:15:27.230Z,11.29
2022-12-31T16:18:02.995Z,11.20
2022-12-31T16:20:31.825Z,11.12
2022-12-31T16:23:04.779Z,11.10
2022-12-31T16:25:34.126Z,11.07
2022-12-31T16:28:03.740Z,11.04
2022-12-31T16:30:33.594Z,10.98
2022-12-31T16:33:06.396Z,10.93
2022-12-31T16:35:39.018Z,10.97
2022-12-31T16:38:19.751Z,10.95
2022-12-31T16:41:01.387Z,10.98
2022-12-31T16:43:37.466Z,10.91
2022-12-31T16:46:27.040Z,10.86
2022-12-31T16:49:16.952Z,10.87
2022-12-31T16:51:44.228Z,10.95
2022-12-31T16:54:19.643Z,10.86
2022-12-31T16:56:46.414Z,10.78
2022-12-31T16:59:29.312Z,10.72
2022-12-31T17:02:01.609Z,10.66
2022-12-31T17:04:28.667Z,10.59
2022-12-31T17:06:55.269Z,10.57
2022-12-31T17:09:31.049Z,10.55
2022-12-31T17:12:12.122Z,10.71
2022-12-31T17:14:49.515Z,10.78
2022-12-31T17:17:29.986Z,10.85
2022-12-31T17:19:59.264Z,10.94
2022-12-31T17:22:35.780Z,11.19
2022-12-31T17:25:05.833Z,11.21
2022-12-31T17:27:33.679Z,11.32
2022-12-31T17:30:35.261Z,11.16
2022-12-31T17:33:03.212Z,11.06
2022-12-31T17:35:35.551Z,11.02
2022-12-31T17:38:20.892Z,10.90
2022-12-31T17:41:04.306Z,10.85
2022-12-31T17:43:35.364Z,10.93
2022-12-31T17:46:03.656Z,10.86
2022-12-31T17:48:30.262Z,10.84
2022-12-31T17:51:02.024Z,10.77
2022-12-31T17:53:28.620Z,10.77
2022-12-31T17:56:00.451Z,10.67
2022-12-31T17:58:38.317Z,10.64
2022-12-31T18:01:10.123Z,10.74
2022-12-31T18:03:36.840Z,10.76
2022-12-31T18:06:05.417Z,10.78
2022-12-31T18:08:32.111Z,10.83
2022-12-31T18:10:58.751Z,10.71
2022-12-31T18:13:27.111Z,10.66
2022-12-31T18:15:54.929Z,10.78
2022-12-31T18:18:29.824Z,10.70
2022-12-31T18:20:59.957Z,10.83
2022-12-31T18:23:29.823Z,10.88
2022-12-31T18:25:56.460Z,10.79
2022-12-31T18:28:23.420Z,10.86
2022-12-31T18:30:50.266Z,10.72
2022-12-31T18:33:22.223Z,10.66
2022-12-31T18:36:10.007Z,10.67
2022-12-31T18:38:37.288Z,10.66
2022-12-31T18:41:04.206Z,10.64
2022-12-31T18:43:31.051Z,10.65
2022-12-31T18:45:57.907Z,10.57
2022-12-31T18:48:24.735Z,10.56
2022-12-31T18:50:51.324Z,10.52
2022-12-31T18:53:21.011Z,10.67
2022-12-31T18:55:53.657Z,10.62
2022-12-31T18:58:20.435Z,10.46
2022-12-31T19:00:48.468Z,10.57
2022-12-31T19:03:17.322Z,10.50
2022-12-31T19:05:45.651Z,10.41
2022-12-31T19:08:12.229Z,10.43
2022-12-31T19:10:38.808Z,10.33
2022-12-31T19:13:05.377Z,10.27
2022-12-31T19:15:42.624Z,10.40
2022-12-31T19:18:09.728Z,10.39
2022-12-31T19:20:36.686Z,10.47
2022-12-31T19:23:03.617Z,10.48
2022-12-31T19:25:35.518Z,10.42
2022-12-31T19:28:03.915Z,10.38
2022-12-31T19:30:33.036Z,10.44
2022-12-31T19:33:00.627Z,10.48
2022-12-31T19:35:27.415Z,10.54
2022-12-31T19:37:55.261Z,10.49
2022-12-31T19:40:28.847Z,10.76
2022-12-31T19:42:55.961Z,10.76
2022-12-31T19:45:25.356Z,10.85
2022-12-31T19:47:52.946Z,10.73
2022-12-31T19:50:23.191Z,10.62
2022-12-31T19:52:52.253Z,10.59
2022-12-31T19:55:20.977Z,10.53
2022-12-31T19:57:48.526Z,10.60
2022-12-31T20:00:17.575Z,10.55
2022-12-31T20:02:46.064Z,10.48
2022-12-31T20:05:14.867Z,10.60
2022-12-31T20:07:41.648Z,10.77
2022-12-31T20:10:08.560Z,10.92
2022-12-31T20:12:39.185Z,10.81
2022-12-31T20:15:10.726Z,10.68
2022-12-31T20:17:37.297Z,10.63
2022-12-31T20:20:05.284Z,10.70
2022-12-31T20:22:31.928Z,10.70
2022-12-31T20:24:58.631Z,10.70
2022-12-31T20:27:25.298Z,10.69
2022-12-31T20:29:51.930Z,10.70
2022-12-31T20:32:18.517Z,10.71
2022-12-31T20:34:45.141Z,10.75
2022-12-31T20:37:11.748Z,10.90
2022-12-31T20:39:38.344Z,10.85
2022-12-31T20:42:05.047Z,10.91
2022-12-31T20:44:31.689Z,10.81
2022-12-31T20:46:58.459Z,10.86
2022-12-31T20:49:52.131Z,10.80
2022-12-31T20:52:11.719Z,10.95
2022-12-31T20:54:38.295Z,10.85
2022-12-31T20:57:04.894Z,10.87
2022-12-31T20:59:31.499Z,10.73
2022-12-31T21:04:45.506Z,10.78
2022-12-31T21:07:12.207Z,10.77
2022-12-31T21:09:38.845Z,10.84
2022-12-31T21:12:24.055Z,10.71
2022-12-31T21:14:50.619Z,10.65
2022-12-31T21:17:17.146Z,10.72
2022-12-31T21:19:43.755Z,10.59
2022-12-31T21:22:10.384Z,10.46
2022-12-31T21:24:37.015Z,10.35
2022-12-31T21:27:03.623Z,10.30
2022-12-31T21:29:34.557Z,10.41
2022-12-31T21:32:01.441Z,10.40
2022-12-31T21:34:28.240Z,10.46
2022-12-31T21:36:54.809Z,10.45
2022-12-31T21:39:21.409Z,10.38
2022-12-31T21:41:54.033Z,10.33
2022-12-31T21:44:25.819Z,10.23
2022-12-31T21:47:42.536Z,10.25
2022-12-31T21:50:08.668Z,10.29
2022-12-31T21:52:35.616Z,10.30
2022-12-31T21:55:23.387Z,10.34
2022-12-31T21:58:24.660Z,10.29
2022-12-31T22:00:57.082Z,10.33
2022-12-31T22:03:29.715Z,10.21
2022-12-31T22:06:00.266Z,10.13
2022-12-31T22:08:28.259Z,10.14
2022-12-31T22:10:55.220Z,10.13
2022-12-31T22:13:22.639Z,10.29
2022-12-31T22:15:55.403Z,10.27
2022-12-31T22:18:25.702Z,10.31
2022-12-31T22:21:04.223Z,10.36
2022-12-31T22:23:32.236Z,10.24
2022-12-31T22:25:58.978Z,10.32
2022-12-31T22:28:41.127Z,10.24
2022-12-31T22:31:12.541Z,10.18
2022-12-31T22:33:39.141Z,10.25
2022-12-31T22:36:08.098Z,10.15
2022-12-31T22:38:34.914Z,10.04
2022-12-31T22:41:13.201Z,9.99
2022-12-31T22:43:42.460Z,9.91
2022-12-31T22:46:14.292Z,9.99
2022-12-31T22:48:42.025Z,9.94
2022-12-31T22:51:10.147Z,9.91
2022-12-31T22:53:38.574Z,9.86
2022-12-31T22:56:05.781Z,10.07
2022-12-31T22:58:32.376Z,10.02
2022-12-31T23:00:58.971Z,9.93
2022-12-31T23:03:25.554Z,9.88
2022-12-31T23:05:52.681Z,9.82
2022-12-31T23:08:23.224Z,9.79
2022-12-31T23:10:59.756Z,9.73
2022-12-31T23:13:55.709Z,9.68
2022-12-31T23:16:41.931Z,9.64
2022-12-31T23:19:27.334Z,9.68
2022-12-31T23:22:12.821Z,9.66
2022-12-31T23:24:39.813Z,9.57
2022-12-31T23:27:07.558Z,9.57
2022-12-31T23:29:34.179Z,9.51
2022-12-31T23:32:00.793Z,9.58
2022-12-31T23:34:27.504Z,9.65
2022-12-31T23:36:54.177Z,9.56
2022-12-31T23:39:20.890Z,9.48
2022-12-31T23:41:47.555Z,9.46
2022-12-31T23:44:14.561Z,9.48
2022-12-31T23:46:41.423Z,9.52
2022-12-31T23:49:08.173Z,9.59
2022-12-31T23:51:36.574Z,9.58
2022-12-31T23:54:04.239Z,9.47
2022-12-31T23:56:30.932Z,9.39
2022-12-31T23:58:59.197Z,9.42
